This is the latest recevied weather packets stored in our database for station/object KD8OZS. If no packets are shown the sender has not sent any weather packets the latest 10 day(s).
| Time | Temp. | Humidity | Pressure | Rain* | Wind** | Luminosity | Snow |
|---|---|---|---|---|---|---|---|
| 1787681762 | 25° C | 64% | 1012.3 hPa | 0 mm | - | 744 W/m² | - |
| 1787681462 | 25.56° C | 60% | 1012.3 hPa | 0 mm | - | 726 W/m² | - |
| 1787681156 | 25° C | 61% | 1012.7 hPa | 0 mm | - | 718 W/m² | - |
| 1787680852 | 25° C | 63% | 1012.7 hPa | 0 mm | - | 674 W/m² | - |
| 1787680547 | 24.44° C | 65% | 1012.7 hPa | 0 mm | - | 368 W/m² | - |
| 1787680245 | 24.44° C | 65% | 1012.6 hPa | 0 mm | - | 347 W/m² | - |
| 1787679945 | 24.44° C | 67% | 1012.7 hPa | 0 mm | - | 277 W/m² | - |
| 1787679639 | 25° C | 63% | 1012.7 hPa | 0 mm | - | 284 W/m² | - |
| 1787679335 | 25° C | 57% | 1012.7 hPa | 0 mm | - | 824 W/m² | - |
| 1787679031 | 25° C | 63% | 1012.7 hPa | 0 mm | - | 465 W/m² | - |
| 1787678731 | 24.44° C | 63% | 1012.9 hPa | 0 mm | - | 180 W/m² | - |
| 1787678430 | 22.78° C | 72% | 1012.9 hPa | 0 mm | - | 512 W/m² | - |
| 1787678125 | 22.78° C | 74% | 1013 hPa | 0 mm | - | 143 W/m² | - |
| 1787677820 | 23.33° C | 69% | 1013 hPa | 0 mm | - | 97 W/m² | - |
| 1787677515 | 23.89° C | 67% | 1013 hPa | 0 mm | - | 117 W/m² | - |
| 1787677214 | 24.44° C | 63% | 1012.9 hPa | 0 mm | - | 127 W/m² | - |
| 1787676913 | 24.44° C | 65% | 1013 hPa | 0 mm | - | 229 W/m² | - |
| 1787676608 | 23.89° C | 61% | 1013 hPa | 0 mm | - | 172 W/m² | - |
| 1787676305 | 23.89° C | 61% | 1012.8 hPa | 0 mm | - | 218 W/m² | - |
| 1787676001 | 23.33° C | 63% | 1013 hPa | 0 mm | - | 153 W/m² | - |
| 1787675696 | 23.33° C | 62% | 1012.9 hPa | 0 mm | - | 363 W/m² | - |
| 1787675395 | 23.33° C | 63% | 1013 hPa | 0 mm | - | 81 W/m² | - |
| 1787675090 | 22.78° C | 65% | 1012.8 hPa | 0 mm | - | 87 W/m² | - |
| 1787674789 | 23.33° C | 65% | 1013 hPa | 0 mm | - | 67 W/m² | - |
| 1787674486 | 23.89° C | 63% | 1012.7 hPa | 0 mm | - | 65 W/m² | - |
* Rain latest hour (hover to see other rain measurements)
** Current wind speed in m/s (hover to see current wind gust speed)